Time;durP1;ratioP1;P1;durP2;ratioP2;P2;SDS_P1;SDS_P2;PMS_P1;PMS_P2;Temp;Humidity;BMP_temperature;BMP_pressure;BME280_temperature;BME280_humidity;BME280_pressure;Samples;Min_cycle;Max_cycle;Signal;HPM_P1;HPM_P2
2021/11/28 00:00:45;;;;;;;7.10;0.98;;;-0.50;99.90;;;;;;4944968;29;20027;-96
2021/11/28 00:03:18;;;;;;;6.93;1.10;;;-0.60;99.90;;;;;;4944926;29;20027;-95
2021/11/28 00:05:53;;;;;;;6.95;1.25;;;-0.50;99.90;;;;;;4946053;29;20126;-95
2021/11/28 00:13:34;;;;;;;5.47;0.90;;;-0.50;99.90;;;;;;4966626;29;20019;-95
2021/11/28 00:16:02;;;;;;;5.75;0.90;;;-0.50;99.90;;;;;;4950634;29;20038;-95
2021/11/28 00:18:30;;;;;;;8.98;0.80;;;-0.50;99.90;;;;;;4948771;29;20114;-95
2021/11/28 00:20:56;;;;;;;4.30;0.65;;;-0.60;99.90;;;;;;4937962;29;20073;-95
2021/11/28 00:23:25;;;;;;;3.35;0.63;;;-0.60;99.90;;;;;;4945719;29;20104;-96
2021/11/28 00:25:52;;;;;;;8.25;1.02;;;-0.60;99.90;;;;;;4947714;29;20035;-96
2021/11/28 00:28:18;;;;;;;3.00;0.60;;;-0.60;99.90;;;;;;4948976;29;20039;-95
2021/11/28 00:30:44;;;;;;;7.00;0.85;;;-0.60;99.90;;;;;;4948808;29;20039;-96
2021/11/28 00:33:13;;;;;;;5.85;1.25;;;-0.60;99.90;;;;;;4950788;29;20059;-95
2021/11/28 00:35:39;;;;;;;2.58;0.80;;;-0.50;99.90;;;;;;4951372;29;20031;-95
2021/11/28 00:38:05;;;;;;;6.57;0.88;;;-0.60;99.90;;;;;;4952896;29;20042;-96
2021/11/28 00:40:34;;;;;;;6.63;1.17;;;-0.60;99.90;;;;;;4956327;29;20031;-95
2021/11/28 00:43:00;;;;;;;6.53;1.02;;;-0.60;99.90;;;;;;4956079;29;20031;-96
2021/11/28 00:45:26;;;;;;;5.18;0.90;;;-0.60;99.90;;;;;;4957566;29;20055;-95
2021/11/28 00:47:54;;;;;;;7.03;0.80;;;-0.60;99.90;;;;;;4959351;29;20039;-96
2021/11/28 00:50:50;;;;;;;13.73;2.17;;;-0.60;99.90;;;;;;4944478;29;20035;-96
2021/11/28 00:53:18;;;;;;;2.80;0.75;;;-0.60;99.90;;;;;;4956469;29;20023;-96
2021/11/28 00:55:49;;;;;;;30.52;1.63;;;-0.60;99.90;;;;;;4947789;29;20023;-95
2021/11/28 00:58:16;;;;;;;3.30;1.00;;;-0.70;99.90;;;;;;4947028;29;20023;-95
2021/11/28 01:00:43;;;;;;;10.05;1.30;;;-0.70;99.90;;;;;;4945896;29;20028;-95
2021/11/28 01:03:09;;;;;;;10.00;1.15;;;-0.60;99.90;;;;;;4948247;29;20031;-96
2021/11/28 01:05:35;;;;;;;5.93;0.85;;;-0.60;99.90;;;;;;4948040;29;20035;-94
2021/11/28 01:08:05;;;;;;;5.05;1.40;;;-0.60;99.90;;;;;;4946138;28;20039;-95
2021/11/28 01:10:34;;;;;;;10.73;1.02;;;-0.60;99.90;;;;;;4948975;29;20072;-95
2021/11/28 01:13:00;;;;;;;5.60;1.17;;;-0.60;99.90;;;;;;4952953;29;20046;-95
2021/11/28 01:15:31;;;;;;;11.07;0.90;;;-0.60;99.90;;;;;;4962821;29;20111;-95
2021/11/28 01:18:01;;;;;;;7.22;0.63;;;-0.70;99.90;;;;;;4947167;29;20020;-95
2021/11/28 01:20:30;;;;;;;5.30;0.82;;;-0.70;99.90;;;;;;4947780;29;20063;-95
2021/11/28 01:22:56;;;;;;;3.88;0.82;;;-0.70;99.90;;;;;;4948199;29;20520;-96
2021/11/28 01:25:24;;;;;;;2.95;0.60;;;-0.70;99.90;;;;;;4949804;29;20011;-95
2021/11/28 01:27:58;;;;;;;7.53;0.82;;;-0.70;99.90;;;;;;4937783;29;20505;-96
2021/11/28 01:30:28;;;;;;;5.35;0.88;;;-0.70;99.90;;;;;;4954534;29;20035;-95
2021/11/28 01:32:58;;;;;;;1.23;0.90;;;-0.70;99.90;;;;;;4956549;29;20030;-95
2021/11/28 01:35:29;;;;;;;1.80;0.52;;;-0.60;99.90;;;;;;4954465;29;20046;-96
2021/11/28 01:37:58;;;;;;;3.80;0.70;;;-0.60;99.90;;;;;;4953601;28;20036;-95
2021/11/28 01:40:26;;;;;;;6.40;1.85;;;-0.60;99.90;;;;;;4953338;29;20031;-95
2021/11/28 01:43:02;;;;;;;6.70;0.82;;;-0.60;99.90;;;;;;4952465;29;20110;-95
2021/11/28 01:45:37;;;;;;;8.43;0.77;;;-0.60;99.90;;;;;;4951381;29;20042;-96
2021/11/28 01:48:08;;;;;;;10.18;0.80;;;-0.60;99.90;;;;;;4948103;29;20107;-96
2021/11/28 01:50:39;;;;;;;2.65;0.63;;;-0.60;99.90;;;;;;4953093;29;20030;-96
2021/11/28 01:53:09;;;;;;;8.60;1.08;;;-0.50;99.90;;;;;;4947578;29;20039;-95
2021/11/28 01:55:35;;;;;;;5.97;0.98;;;-0.60;99.90;;;;;;4946323;29;20027;-96
2021/11/28 01:58:08;;;;;;;10.10;0.98;;;-0.60;99.90;;;;;;4947875;29;20031;-96
2021/11/28 02:00:43;;;;;;;3.95;0.70;;;-0.50;99.90;;;;;;4950656;29;20031;-95
2021/11/28 02:03:11;;;;;;;2.55;0.50;;;-0.50;99.90;;;;;;4947757;29;20028;-95
2021/11/28 02:05:41;;;;;;;4.90;1.63;;;-0.60;99.90;;;;;;4948130;29;20493;-95
2021/11/28 02:08:10;;;;;;;4.18;1.13;;;-0.60;99.90;;;;;;4948152;29;20035;-96
2021/11/28 02:10:36;;;;;;;7.95;0.90;;;-0.60;99.90;;;;;;4947066;29;20118;-95
2021/11/28 02:13:02;;;;;;;2.97;0.90;;;-0.60;99.90;;;;;;4947332;29;20066;-95
2021/11/28 02:15:28;;;;;;;5.50;1.00;;;-0.60;99.90;;;;;;4959322;29;20019;-95
2021/11/28 02:17:56;;;;;;;4.75;0.77;;;-0.60;99.90;;;;;;4960968;28;20043;-94
2021/11/28 02:20:26;;;;;;;8.32;0.80;;;-0.60;99.90;;;;;;4948662;29;20031;-94
2021/11/28 02:22:53;;;;;;;4.33;0.70;;;-0.60;99.90;;;;;;4924244;29;20036;-96
2021/11/28 02:25:19;;;;;;;8.27;0.77;;;-0.60;99.90;;;;;;4923130;29;20280;-95
2021/11/28 02:27:45;;;;;;;5.03;0.80;;;-0.70;99.90;;;;;;4921993;29;20040;-94
2021/11/28 02:30:13;;;;;;;2.53;0.98;;;-0.70;99.90;;;;;;4922091;29;20027;-94
2021/11/28 02:32:39;;;;;;;5.88;0.85;;;-0.70;99.90;;;;;;4921140;29;20394;-95
2021/11/28 02:35:06;;;;;;;4.70;0.68;;;-0.70;99.90;;;;;;4920920;29;20024;-95
2021/11/28 02:37:31;;;;;;;3.15;0.95;;;-0.70;99.90;;;;;;4921095;29;20027;-94
2021/11/28 02:39:59;;;;;;;4.63;0.85;;;-0.70;99.90;;;;;;4921477;29;20028;-93
2021/11/28 02:42:25;;;;;;;5.35;1.63;;;-0.70;99.90;;;;;;4920971;29;20027;-94
2021/11/28 02:44:51;;;;;;;2.42;0.80;;;-0.80;99.90;;;;;;4920862;29;20158;-94
2021/11/28 02:47:17;;;;;;;6.38;1.20;;;-0.80;99.90;;;;;;4921289;29;20510;-93
2021/11/28 02:49:43;;;;;;;8.50;1.17;;;-0.80;99.90;;;;;;4921356;29;20035;-93
2021/11/28 02:52:12;;;;;;;4.40;0.70;;;-0.80;99.90;;;;;;4921771;29;20102;-93
2021/11/28 02:54:40;;;;;;;6.78;1.30;;;-0.90;99.90;;;;;;4920985;29;20027;-94
2021/11/28 02:57:10;;;;;;;7.35;1.33;;;-0.90;99.90;;;;;;4921045;29;20084;-94
2021/11/28 02:59:36;;;;;;;6.90;1.00;;;-0.90;99.90;;;;;;4920562;29;20020;-92
2021/11/28 03:02:03;;;;;;;1.70;0.75;;;-0.90;99.90;;;;;;4920669;29;20032;-93
2021/11/28 03:04:29;;;;;;;6.78;0.75;;;-0.90;99.90;;;;;;4920293;29;20039;-94
2021/11/28 03:06:55;;;;;;;4.15;0.82;;;-1.00;99.90;;;;;;4920002;29;20039;-93
2021/11/28 03:09:21;;;;;;;3.30;1.33;;;-1.00;99.90;;;;;;4920828;29;20035;-94
2021/11/28 03:11:46;;;;;;;5.10;0.70;;;-1.00;99.90;;;;;;4920580;29;20024;-94
2021/11/28 03:14:12;;;;;;;2.22;0.73;;;-1.00;99.90;;;;;;4920397;29;20054;-94
2021/11/28 03:16:38;;;;;;;3.70;1.23;;;-1.10;99.90;;;;;;4920410;29;20082;-94
2021/11/28 03:19:04;;;;;;;2.88;0.93;;;-1.00;99.90;;;;;;4920658;29;20031;-94
2021/11/28 03:21:32;;;;;;;8.10;0.70;;;-1.00;99.90;;;;;;4921320;29;20024;-94
2021/11/28 03:24:00;;;;;;;6.53;1.08;;;-1.00;99.90;;;;;;4921690;29;20485;-95
2021/11/28 03:26:28;;;;;;;1.38;0.40;;;-1.00;99.90;;;;;;4922478;29;20477;-94
2021/11/28 03:29:00;;;;;;;6.85;0.82;;;-1.00;99.90;;;;;;4915321;29;20034;-95
2021/11/28 03:31:29;;;;;;;1.88;0.90;;;-1.00;99.90;;;;;;4927171;29;20027;-94
2021/11/28 03:33:55;;;;;;;2.88;0.80;;;-1.10;99.90;;;;;;4926837;29;20055;-95
2021/11/28 03:36:23;;;;;;;5.10;0.52;;;-1.00;99.90;;;;;;4926831;29;20028;-94
2021/11/28 03:38:51;;;;;;;4.30;0.70;;;-1.10;99.90;;;;;;4941701;29;20040;-94
2021/11/28 03:41:19;;;;;;;3.33;0.55;;;-1.10;99.90;;;;;;4944122;29;20461;-94
2021/11/28 03:43:45;;;;;;;4.50;0.77;;;-1.20;99.90;;;;;;4942995;29;20032;-94
2021/11/28 03:46:11;;;;;;;4.50;0.73;;;-1.20;99.90;;;;;;4943284;29;20047;-94
2021/11/28 03:48:38;;;;;;;6.45;0.82;;;-1.20;99.90;;;;;;4944398;29;20043;-94
2021/11/28 03:51:04;;;;;;;2.03;0.90;;;-1.30;99.90;;;;;;4949635;29;20047;-93
2021/11/28 03:53:30;;;;;;;2.72;0.65;;;-1.30;99.90;;;;;;4948754;29;20030;-94
2021/11/28 03:56:00;;;;;;;3.15;0.70;;;-1.30;99.90;;;;;;4955643;29;20477;-95
2021/11/28 03:58:26;;;;;;;6.93;1.33;;;-1.30;99.90;;;;;;4954520;29;20031;-93
2021/11/28 04:00:51;;;;;;;2.88;1.05;;;-1.40;99.90;;;;;;4951134;29;20042;-93
2021/11/28 04:03:17;;;;;;;5.95;0.80;;;-1.40;99.90;;;;;;4947166;29;20469;-93
2021/11/28 04:05:43;;;;;;;3.03;0.90;;;-1.40;99.90;;;;;;4944885;29;20062;-94
2021/11/28 04:08:08;;;;;;;11.52;0.90;;;-1.50;99.90;;;;;;4944779;29;20124;-93
2021/11/28 04:10:34;;;;;;;2.03;0.57;;;-1.50;99.90;;;;;;4945835;29;20532;-94
2021/11/28 04:13:00;;;;;;;5.32;0.73;;;-1.50;99.90;;;;;;4944944;29;20073;-93
2021/11/28 04:15:26;;;;;;;3.88;1.10;;;-1.60;99.90;;;;;;4945370;29;20027;-94
2021/11/28 04:17:51;;;;;;;2.30;0.60;;;-1.60;99.90;;;;;;4945255;29;20050;-94
2021/11/28 04:20:17;;;;;;;1.70;0.55;;;-1.60;99.90;;;;;;4943223;29;20512;-93
2021/11/28 04:22:43;;;;;;;3.17;1.08;;;-1.60;99.90;;;;;;4942460;29;20035;-94
2021/11/28 04:25:11;;;;;;;9.05;0.93;;;-1.60;99.90;;;;;;4943227;29;20130;-94
2021/11/28 04:27:37;;;;;;;3.42;0.93;;;-1.60;99.90;;;;;;4942922;29;20086;-93
2021/11/28 04:30:05;;;;;;;8.35;0.70;;;-1.60;99.90;;;;;;4943528;29;20028;-93
2021/11/28 04:32:31;;;;;;;2.65;0.65;;;-1.60;99.90;;;;;;4943080;29;20542;-94
2021/11/28 04:34:57;;;;;;;4.82;0.82;;;-1.60;99.90;;;;;;4941758;29;20059;-94
2021/11/28 04:37:23;;;;;;;4.80;0.60;;;-1.60;99.90;;;;;;4942690;29;20035;-93
2021/11/28 04:39:49;;;;;;;4.05;0.80;;;-1.60;99.90;;;;;;4942682;28;20501;-94
2021/11/28 04:42:15;;;;;;;2.30;0.60;;;-1.60;99.90;;;;;;4941701;29;20039;-93
2021/11/28 04:44:40;;;;;;;2.85;0.47;;;-1.50;99.90;;;;;;4942959;29;20122;-93
2021/11/28 04:47:06;;;;;;;7.07;0.68;;;-1.50;99.90;;;;;;4942623;29;20045;-93
2021/11/28 04:49:32;;;;;;;8.00;1.45;;;-1.50;99.90;;;;;;4943813;29;20027;-93
2021/11/28 04:51:58;;;;;;;2.85;0.50;;;-1.50;99.90;;;;;;4944126;29;20469;-94
2021/11/28 04:54:24;;;;;;;5.35;0.70;;;-1.60;99.90;;;;;;4949180;29;20031;-93
2021/11/28 04:56:50;;;;;;;6.38;0.80;;;-1.60;99.90;;;;;;4954061;29;20067;-94
2021/11/28 04:59:16;;;;;;;9.73;0.80;;;-1.60;99.90;;;;;;4943131;29;20031;-94
2021/11/28 05:01:42;;;;;;;6.28;1.33;;;-1.60;99.90;;;;;;4942857;29;20031;-95
2021/11/28 05:04:10;;;;;;;1.33;0.57;;;-1.60;99.90;;;;;;4943551;29;20089;-94
2021/11/28 05:06:37;;;;;;;2.47;0.80;;;-1.70;99.90;;;;;;4944312;29;20481;-94
2021/11/28 05:09:05;;;;;;;3.63;0.60;;;-1.60;99.90;;;;;;4961664;28;20038;-95
2021/11/28 05:11:30;;;;;;;5.60;0.70;;;-1.70;99.90;;;;;;4944777;29;20030;-94
2021/11/28 05:13:56;;;;;;;1.80;0.60;;;-1.70;99.90;;;;;;4949823;29;20031;-94
2021/11/28 05:16:22;;;;;;;0.90;0.45;;;-1.70;99.90;;;;;;4946880;29;20020;-94
2021/11/28 05:18:48;;;;;;;2.03;0.40;;;-1.70;99.90;;;;;;4942955;29;20043;-94
2021/11/28 05:21:14;;;;;;;1.92;0.70;;;-1.80;99.90;;;;;;4944010;29;20465;-95
2021/11/28 05:23:39;;;;;;;2.67;0.40;;;-1.80;99.90;;;;;;4943297;29;20059;-94
2021/11/28 05:26:05;;;;;;;1.02;0.60;;;-1.80;99.90;;;;;;4955219;29;20019;-93
2021/11/28 05:28:31;;;;;;;8.25;0.80;;;-1.90;99.90;;;;;;4958174;29;20062;-95
2021/11/28 05:30:57;;;;;;;2.63;0.55;;;-1.90;99.90;;;;;;4927496;29;20123;-94
2021/11/28 05:33:22;;;;;;;3.95;0.98;;;-1.90;99.90;;;;;;4941788;29;20066;-95
2021/11/28 05:35:48;;;;;;;3.75;0.60;;;-1.90;99.90;;;;;;4959059;29;20023;-94
2021/11/28 05:38:14;;;;;;;5.43;0.60;;;-1.90;99.90;;;;;;4940173;29;20023;-94
2021/11/28 05:40:40;;;;;;;0.85;0.50;;;-2.00;99.90;;;;;;4941506;29;20067;-94
2021/11/28 05:43:06;;;;;;;3.95;0.73;;;-2.00;99.90;;;;;;4941416;29;20501;-94
2021/11/28 05:45:32;;;;;;;2.90;0.65;;;-1.90;99.90;;;;;;4941799;29;20051;-94
2021/11/28 05:47:58;;;;;;;5.72;1.95;;;-1.90;99.90;;;;;;4941898;29;20122;-94
2021/11/28 05:50:26;;;;;;;3.80;0.90;;;-1.90;99.90;;;;;;4943161;29;20062;-94
2021/11/28 05:52:52;;;;;;;2.63;0.60;;;-1.90;99.90;;;;;;4943066;29;20143;-94
2021/11/28 05:55:18;;;;;;;2.47;0.95;;;-1.90;99.90;;;;;;4941682;29;20032;-94
2021/11/28 05:57:44;;;;;;;9.45;0.88;;;-1.90;99.90;;;;;;4942813;29;20110;-94
2021/11/28 06:00:14;;;;;;;1.10;0.40;;;-1.90;99.90;;;;;;4941973;29;20031;-93
2021/11/28 06:02:40;;;;;;;5.22;0.70;;;-1.90;99.90;;;;;;4943132;29;20114;-94
2021/11/28 06:05:07;;;;;;;4.88;0.50;;;-1.80;99.90;;;;;;4944990;29;20047;-94
2021/11/28 06:07:33;;;;;;;1.30;0.43;;;-1.80;99.90;;;;;;4945149;28;20546;-95
2021/11/28 06:10:03;;;;;;;1.00;0.40;;;-1.80;99.90;;;;;;4946855;29;20095;-94
2021/11/28 06:12:29;;;;;;;3.75;0.60;;;-1.80;99.90;;;;;;4948186;29;20118;-94
2021/11/28 06:14:55;;;;;;;3.40;0.45;;;-1.70;99.90;;;;;;4949169;29;20059;-94
2021/11/28 06:17:21;;;;;;;4.68;0.57;;;-1.70;99.90;;;;;;4950532;29;20156;-94
2021/11/28 06:19:47;;;;;;;4.13;0.75;;;-1.70;99.90;;;;;;4945874;29;20032;-96
2021/11/28 06:22:13;;;;;;;2.53;0.60;;;-1.60;99.90;;;;;;4945127;29;20035;-95
2021/11/28 06:24:39;;;;;;;3.60;0.60;;;-1.60;99.90;;;;;;4949834;29;20046;-94
2021/11/28 06:27:06;;;;;;;0.57;0.45;;;-1.60;99.90;;;;;;4943243;29;20039;-94
2021/11/28 06:29:32;;;;;;;2.60;0.85;;;-1.60;99.90;;;;;;4927574;29;20031;-96
2021/11/28 06:31:58;;;;;;;4.78;0.70;;;-1.70;99.90;;;;;;4942648;29;20039;-94
2021/11/28 06:34:24;;;;;;;4.50;0.98;;;-1.70;99.90;;;;;;4941167;29;20035;-94
2021/11/28 06:36:50;;;;;;;1.95;0.50;;;-1.70;99.90;;;;;;4941224;29;20046;-94
2021/11/28 06:39:16;;;;;;;3.47;0.70;;;-1.80;99.90;;;;;;4941342;29;20121;-96
2021/11/28 06:41:42;;;;;;;4.97;0.65;;;-1.80;99.90;;;;;;4944140;29;20023;-94
2021/11/28 06:44:08;;;;;;;5.05;0.90;;;-1.80;99.90;;;;;;4942768;29;20023;-95
2021/11/28 06:46:35;;;;;;;1.33;0.65;;;-1.80;99.90;;;;;;4942841;29;20105;-95
2021/11/28 06:49:01;;;;;;;1.85;0.95;;;-1.80;99.90;;;;;;4942539;29;20073;-95
2021/11/28 06:51:27;;;;;;;1.65;0.80;;;-1.80;99.90;;;;;;4959533;29;20034;-95
2021/11/28 06:53:53;;;;;;;2.88;0.60;;;-1.90;99.90;;;;;;4947039;29;20059;-95
2021/11/28 06:56:19;;;;;;;2.05;0.60;;;-1.80;99.90;;;;;;4944163;29;20481;-95
2021/11/28 06:58:47;;;;;;;7.78;2.75;;;-1.90;99.90;;;;;;4946838;29;20029;-94
2021/11/28 07:01:13;;;;;;;3.85;0.70;;;-1.90;99.90;;;;;;4952717;29;20027;-95
2021/11/28 07:03:39;;;;;;;3.05;0.65;;;-1.90;99.90;;;;;;4933907;29;20023;-95
2021/11/28 07:06:06;;;;;;;1.23;0.57;;;-1.90;99.90;;;;;;4929403;29;20034;-95
2021/11/28 07:08:31;;;;;;;5.80;0.50;;;-1.90;99.90;;;;;;4927704;29;20032;-93
2021/11/28 07:10:58;;;;;;;1.88;0.75;;;-2.00;99.90;;;;;;4923805;29;20536;-94
2021/11/28 07:13:26;;;;;;;2.80;0.63;;;-1.90;99.90;;;;;;4940197;29;20023;-94
2021/11/28 07:15:54;;;;;;;1.05;0.52;;;-1.90;99.90;;;;;;4922590;29;20019;-94
2021/11/28 07:18:20;;;;;;;0.82;0.50;;;-1.90;99.90;;;;;;4923160;29;20036;-94
2021/11/28 07:20:46;;;;;;;3.33;0.75;;;-1.90;99.90;;;;;;4921846;29;20024;-94
2021/11/28 07:44:26;;;;;;;2.45;0.52;;;-2.00;99.90;;;;;;4959343;23;20051;-93
2021/11/28 07:46:52;;;;;;;2.55;0.60;;;-2.00;99.90;;;;;;4929319;29;20040;-92
2021/11/28 07:49:17;;;;;;;3.08;0.60;;;-2.00;99.90;;;;;;4943605;29;20051;-94
2021/11/28 07:51:43;;;;;;;2.92;0.73;;;-2.10;99.90;;;;;;4921702;29;20502;-93
2021/11/28 07:54:09;;;;;;;1.88;1.00;;;-2.00;99.90;;;;;;4921726;29;20445;-94
2021/11/28 07:56:35;;;;;;;7.00;0.57;;;-2.00;99.90;;;;;;4940555;29;20103;-94
2021/11/28 07:59:10;;;;;;;1.40;0.50;;;-2.10;99.90;;;;;;4927688;29;20394;-95
2021/11/28 08:01:39;;;;;;;2.33;0.52;;;-2.10;99.90;;;;;;4908168;29;20081;-93
2021/11/28 08:04:20;;;;;;;0.75;0.30;;;-2.10;99.90;;;;;;4929686;29;20040;-96
2021/11/28 08:06:50;;;;;;;1.48;0.50;;;-2.10;99.90;;;;;;4930646;29;20023;-96
2021/11/28 08:09:26;;;;;;;3.20;0.50;;;-2.10;99.90;;;;;;4913670;29;20047;-95
2021/11/28 08:11:58;;;;;;;1.88;0.50;;;-2.20;99.90;;;;;;4913798;29;20039;-94
2021/11/28 08:14:25;;;;;;;2.78;0.40;;;-2.20;99.90;;;;;;4899327;29;20060;-96
2021/11/28 08:16:51;;;;;;;2.80;0.45;;;-2.10;99.90;;;;;;4918289;29;20032;-95
2021/11/28 08:19:19;;;;;;;2.67;0.60;;;-2.10;99.90;;;;;;4908978;29;20028;-94
2021/11/28 08:21:48;;;;;;;1.40;0.50;;;-2.10;99.90;;;;;;4910395;29;20079;-94
2021/11/28 08:24:14;;;;;;;0.35;0.30;;;-2.10;99.90;;;;;;4908974;29;20028;-95
2021/11/28 08:26:40;;;;;;;4.68;0.45;;;-2.00;99.90;;;;;;4909794;29;20106;-94
2021/11/28 08:29:09;;;;;;;2.47;0.40;;;-2.00;99.90;;;;;;4911218;29;20115;-95
2021/11/28 08:31:36;;;;;;;2.50;0.50;;;-1.90;99.90;;;;;;4923193;29;20024;-95
2021/11/28 08:34:05;;;;;;;0.73;0.57;;;-1.90;99.90;;;;;;4922167;29;20024;-96
2021/11/28 08:36:32;;;;;;;3.72;0.68;;;-1.90;99.90;;;;;;4912498;29;20114;-94
2021/11/28 08:39:02;;;;;;;1.33;0.63;;;-1.80;99.90;;;;;;4916890;29;20028;-93
2021/11/28 08:41:28;;;;;;;2.72;0.60;;;-1.70;99.90;;;;;;4915412;29;20032;-94
2021/11/28 08:43:56;;;;;;;4.50;0.82;;;-1.60;99.90;;;;;;4912549;29;20143;-94
2021/11/28 08:46:35;;;;;;;2.28;1.00;;;-1.60;99.90;;;;;;4914606;29;20025;-95
2021/11/28 08:49:08;;;;;;;5.00;1.42;;;-1.50;99.90;;;;;;4902004;29;20036;-95
2021/11/28 08:51:36;;;;;;;3.67;0.75;;;-1.40;99.90;;;;;;4916116;29;20115;-95
2021/11/28 08:54:03;;;;;;;5.28;1.05;;;-1.30;99.90;;;;;;4909791;29;20100;-95
2021/11/28 08:56:32;;;;;;;6.18;1.60;;;-1.20;99.90;;;;;;4926122;29;20028;-95
2021/11/28 08:58:58;;;;;;;3.90;1.40;;;-1.10;99.90;;;;;;4912292;29;20028;-94
2021/11/28 09:01:29;;;;;;;5.25;1.00;;;-1.10;99.90;;;;;;4914515;29;20343;-94
2021/11/28 09:03:59;;;;;;;5.05;0.98;;;-0.90;99.90;;;;;;4902198;29;20043;-94
2021/11/28 09:06:37;;;;;;;2.67;0.83;;;-0.80;99.90;;;;;;4923672;29;20127;-95
2021/11/28 09:09:15;;;;;;;5.07;0.52;;;-0.70;99.90;;;;;;4913599;29;20377;-95
2021/11/28 09:11:44;;;;;;;4.53;0.68;;;-0.50;99.90;;;;;;4918006;29;20028;-95
2021/11/28 09:14:28;;;;;;;;;;;;;;;;;;;;;
2021/11/28 09:17:07;;;;;;;2.50;0.95;;;-0.20;99.90;;;;;;4930879;29;20072;-96
2021/11/28 09:22:22;;;;;;;2.28;0.55;;;-0.10;99.90;;;;;;4927761;29;20059;-95
2021/11/28 09:24:48;;;;;;;4.97;0.80;;;0.00;99.90;;;;;;4907095;29;20035;-95
2021/11/28 09:27:21;;;;;;;2.72;0.60;;;0.00;99.90;;;;;;4909853;29;20036;-95
2021/11/28 09:29:47;;;;;;;3.28;0.52;;;0.00;99.90;;;;;;4911178;29;20048;-96
2021/11/28 09:32:17;;;;;;;5.55;1.00;;;0.00;99.90;;;;;;4914807;29;20028;-94
2021/11/28 09:34:48;;;;;;;2.90;0.60;;;0.00;99.90;;;;;;4929688;29;20071;-95
2021/11/28 09:37:14;;;;;;;2.72;0.80;;;0.00;99.90;;;;;;4907872;29;20028;-95
2021/11/28 09:39:45;;;;;;;1.42;1.00;;;0.10;99.90;;;;;;4908706;29;20031;-95
2021/11/28 09:42:28;;;;;;;2.83;1.13;;;0.10;99.90;;;;;;4907963;29;20079;-95
2021/11/28 09:44:58;;;;;;;4.03;2.38;;;0.10;99.90;;;;;;4899349;29;20055;-95
2021/11/28 09:47:25;;;;;;;9.70;3.08;;;0.20;99.90;;;;;;4902936;29;20031;-94
2021/11/28 09:49:55;;;;;;;5.47;1.85;;;0.20;99.90;;;;;;4905605;29;20040;-94
2021/11/28 09:52:24;;;;;;;1.92;1.70;;;0.20;99.90;;;;;;4906612;29;20024;-95
2021/11/28 09:54:56;;;;;;;3.75;1.58;;;0.30;99.90;;;;;;4905486;29;20032;-95
2021/11/28 09:57:22;;;;;;;4.18;1.90;;;0.40;99.90;;;;;;4905310;29;20050;-95
2021/11/28 09:59:51;;;;;;;4.07;1.20;;;0.40;99.90;;;;;;4903932;29;20032;-95
2021/11/28 10:02:23;;;;;;;1.48;0.80;;;0.50;99.90;;;;;;4902557;29;20024;-95
2021/11/28 10:04:50;;;;;;;3.88;1.10;;;0.50;99.90;;;;;;4906167;29;20108;-96
2021/11/28 10:07:17;;;;;;;1.77;0.80;;;0.70;99.90;;;;;;4903940;29;20024;-94
2021/11/28 10:09:47;;;;;;;2.17;0.90;;;0.70;99.90;;;;;;4908989;29;20024;-95
2021/11/28 10:12:31;;;;;;;3.70;0.90;;;0.80;99.90;;;;;;4896561;29;20443;-95
2021/11/28 10:15:01;;;;;;;3.47;0.75;;;0.80;99.90;;;;;;4914731;29;20079;-95
2021/11/28 10:17:33;;;;;;;1.75;0.93;;;0.90;99.90;;;;;;4919105;29;20028;-95
2021/11/28 10:20:01;;;;;;;1.70;1.00;;;1.00;99.90;;;;;;4923026;29;20040;-94
2021/11/28 10:22:27;;;;;;;2.92;0.90;;;1.00;99.90;;;;;;4919351;29;20092;-96
2021/11/28 10:25:11;;;;;;;5.28;0.80;;;1.10;99.90;;;;;;4917656;29;20059;-93
2021/11/28 10:27:39;;;;;;;3.47;0.80;;;1.20;99.90;;;;;;4920413;29;20063;-94
2021/11/28 10:30:17;;;;;;;4.57;1.23;;;1.30;99.90;;;;;;4925406;29;20031;-94
2021/11/28 10:32:46;;;;;;;3.10;0.70;;;1.40;99.90;;;;;;4905442;29;20138;-94
2021/11/28 10:35:19;;;;;;;6.00;0.68;;;1.40;99.90;;;;;;4905117;29;20072;-95
2021/11/28 10:37:54;;;;;;;4.57;1.40;;;1.50;99.90;;;;;;4911287;29;20056;-95
2021/11/28 10:40:24;;;;;;;3.45;1.30;;;1.50;99.90;;;;;;4913619;29;20067;-95
2021/11/28 10:43:12;;;;;;;3.22;1.50;;;1.60;99.90;;;;;;4910366;29;20055;-96
2021/11/28 10:45:49;;;;;;;5.43;1.35;;;1.60;99.90;;;;;;4934246;29;20048;-95
2021/11/28 10:48:22;;;;;;;2.80;0.85;;;1.60;99.90;;;;;;4908762;29;20028;-95
2021/11/28 10:50:47;;;;;;;2.17;0.98;;;1.60;99.90;;;;;;4909729;29;20035;-96
2021/11/28 10:53:16;;;;;;;5.32;0.93;;;1.70;99.90;;;;;;4910823;29;20036;-95
2021/11/28 10:55:54;;;;;;;3.53;0.80;;;1.70;99.90;;;;;;4911101;29;20126;-95
2021/11/28 10:58:25;;;;;;;7.72;1.00;;;1.80;99.90;;;;;;4907765;29;20046;-93
2021/11/28 11:00:50;;;;;;;3.67;0.80;;;1.80;99.90;;;;;;4911078;29;20050;-95
2021/11/28 11:03:26;;;;;;;1.98;1.20;;;1.80;99.90;;;;;;4928828;29;20032;-95
2021/11/28 11:05:55;;;;;;;4.03;0.55;;;1.90;99.90;;;;;;4911130;29;20060;-95
2021/11/28 11:08:27;;;;;;;2.13;0.70;;;1.90;99.90;;;;;;4886034;29;20063;-96
2021/11/28 11:11:11;;;;;;;0.95;0.38;;;2.00;99.90;;;;;;4911692;29;20426;-92
2021/11/28 11:13:55;;;;;;;2.47;0.68;;;2.00;99.90;;;;;;4908394;29;20075;-93
2021/11/28 11:16:41;;;;;;;3.92;1.08;;;2.10;99.90;;;;;;4929091;29;20020;-93
2021/11/28 11:19:39;;;;;;;3.90;1.30;;;2.10;99.90;;;;;;4908031;29;20039;-93
2021/11/28 11:22:22;;;;;;;2.42;0.93;;;2.20;99.90;;;;;;4903094;29;20036;-93
2021/11/28 11:24:58;;;;;;;2.15;0.93;;;2.20;99.90;;;;;;4928525;29;20097;-94
2021/11/28 11:27:28;;;;;;;1.83;0.93;;;2.20;99.90;;;;;;4939142;29;20446;-94
2021/11/28 11:30:00;;;;;;;3.08;1.58;;;2.20;99.90;;;;;;4934209;29;20035;-93
2021/11/28 11:32:55;;;;;;;4.68;0.93;;;2.20;99.90;;;;;;4936050;29;20139;-94
2021/11/28 11:35:31;;;;;;;2.33;0.60;;;2.30;99.90;;;;;;4920024;29;20062;-95
2021/11/28 11:38:06;;;;;;;0.73;0.45;;;2.30;99.90;;;;;;4919107;29;20095;-93
2021/11/28 11:40:35;;;;;;;4.95;0.77;;;2.40;99.90;;;;;;4919467;29;20036;-94
2021/11/28 11:43:01;;;;;;;1.15;0.60;;;2.40;99.90;;;;;;4918243;29;20166;-94
2021/11/28 11:45:35;;;;;;;2.70;0.40;;;2.40;99.90;;;;;;4920487;29;20030;-94
2021/11/28 11:48:08;;;;;;;1.27;0.60;;;2.40;99.90;;;;;;4920962;29;20494;-94
2021/11/28 11:50:35;;;;;;;1.55;0.68;;;2.40;99.90;;;;;;4922006;29;20020;-94
2021/11/28 11:53:05;;;;;;;3.88;0.68;;;2.40;99.90;;;;;;4922509;29;20497;-95
2021/11/28 11:55:39;;;;;;;0.80;0.40;;;2.40;99.90;;;;;;4923202;29;20036;-93
2021/11/28 11:58:17;;;;;;;3.30;0.82;;;2.40;99.90;;;;;;4923204;29;20024;-94
2021/11/28 12:01:01;;;;;;;1.85;1.13;;;2.40;99.90;;;;;;4923400;29;20478;-95
2021/11/28 12:03:48;;;;;;;18.38;11.55;;;2.40;99.90;;;;;;4922709;29;20099;-93
2021/11/28 12:06:14;;;;;;;8.00;3.95;;;2.40;99.90;;;;;;4924075;29;20163;-95
2021/11/28 12:08:54;;;;;;;5.28;2.28;;;2.40;99.90;;;;;;4926703;29;20051;-94
2021/11/28 12:11:22;;;;;;;2.00;1.00;;;2.40;99.70;;;;;;4926012;29;20035;-95
2021/11/28 12:13:52;;;;;;;2.50;0.40;;;2.40;99.50;;;;;;4927320;29;20167;-94
2021/11/28 12:16:20;;;;;;;1.38;0.60;;;2.30;99.40;;;;;;4934728;29;20030;-94
2021/11/28 12:18:49;;;;;;;1.27;0.57;;;2.30;99.20;;;;;;4933408;29;20091;-93
2021/11/28 12:21:42;;;;;;;2.22;0.82;;;2.20;99.30;;;;;;4928109;29;20079;-94
2021/11/28 12:24:28;;;;;;;0.60;0.40;;;2.10;99.60;;;;;;4919742;29;20052;-95
2021/11/28 12:27:00;;;;;;;4.90;1.00;;;2.10;99.80;;;;;;4923481;29;20024;-93
2021/11/28 12:29:35;;;;;;;3.72;1.23;;;2.00;99.90;;;;;;4923526;29;20063;-94
2021/11/28 12:32:11;;;;;;;4.35;1.60;;;1.90;99.90;;;;;;4923968;29;20031;-94
2021/11/28 12:34:44;;;;;;;8.88;5.93;;;1.80;99.90;;;;;;4924925;29;20086;-94
2021/11/28 12:37:20;;;;;;;6.80;2.47;;;1.70;99.90;;;;;;4924151;29;20469;-94
2021/11/28 12:39:45;;;;;;;4.63;1.70;;;1.60;99.90;;;;;;4926339;29;20087;-93
2021/11/28 12:42:19;;;;;;;3.25;2.25;;;1.60;99.90;;;;;;4925246;29;20450;-94
2021/11/28 12:44:50;;;;;;;5.03;1.77;;;1.50;99.90;;;;;;4925055;29;20055;-94
2021/11/28 12:47:23;;;;;;;2.15;1.85;;;1.40;99.90;;;;;;4923928;29;20066;-94
2021/11/28 12:49:53;;;;;;;4.18;1.30;;;1.40;99.90;;;;;;4924292;29;20035;-94
2021/11/28 12:52:25;;;;;;;5.93;1.90;;;1.30;99.90;;;;;;4923587;29;20032;-94
2021/11/28 12:55:03;;;;;;;1.63;0.50;;;1.20;99.90;;;;;;4922769;29;20028;-94
2021/11/28 12:57:35;;;;;;;3.47;0.70;;;1.20;99.90;;;;;;4923332;29;20038;-95
2021/11/28 13:00:25;;;;;;;3.22;0.68;;;1.10;99.90;;;;;;4922579;29;20035;-93
2021/11/28 13:03:02;;;;;;;1.55;1.42;;;1.10;99.90;;;;;;4921725;29;20051;-93
2021/11/28 13:05:30;;;;;;;1.65;0.80;;;1.10;99.90;;;;;;4922359;29;20024;-93
2021/11/28 13:08:04;;;;;;;2.53;1.10;;;1.00;99.90;;;;;;4922559;29;20091;-93
2021/11/28 13:10:35;;;;;;;4.95;1.00;;;1.00;99.90;;;;;;4923238;29;20122;-93
2021/11/28 13:13:07;;;;;;;5.75;1.20;;;1.00;99.90;;;;;;4923145;29;20020;-95
2021/11/28 13:15:37;;;;;;;2.72;0.93;;;1.00;99.90;;;;;;4922542;29;20031;-93
2021/11/28 13:18:06;;;;;;;1.17;0.70;;;1.00;99.90;;;;;;4923601;29;20028;-95
2021/11/28 13:20:36;;;;;;;3.83;0.80;;;0.90;99.90;;;;;;4923303;29;20027;-93
2021/11/28 13:23:04;;;;;;;0.98;0.90;;;1.00;99.90;;;;;;4922882;29;20119;-96
2021/11/28 13:25:44;;;;;;;5.65;1.90;;;1.00;99.90;;;;;;4919613;29;20119;-94
2021/11/28 13:28:14;;;;;;;4.18;1.48;;;1.00;99.90;;;;;;4921088;29;20099;-93
2021/11/28 13:30:46;;;;;;;3.22;1.30;;;1.00;99.90;;;;;;4923657;29;20027;-93